createdAt,value
2022-10-18T00:02:12.294Z,27.90
2022-10-18T00:04:38.749Z,31.85
2022-10-18T00:07:05.167Z,27.42
2022-10-18T00:09:31.602Z,31.17
2022-10-18T00:11:58.242Z,28.83
2022-10-18T00:14:25.120Z,30.15
2022-10-18T00:16:51.470Z,32.08
2022-10-18T00:19:17.855Z,26.38
2022-10-18T00:24:15.492Z,31.27
2022-10-18T00:26:41.826Z,28.77
2022-10-18T00:29:13.896Z,30.40
2022-10-18T00:31:40.387Z,32.47
2022-10-18T00:34:11.170Z,31.35
2022-10-18T00:36:37.520Z,33.03
2022-10-18T00:39:07.224Z,31.58
2022-10-18T00:41:35.547Z,30.67
2022-10-18T00:44:26.846Z,33.83
2022-10-18T00:46:57.872Z,30.40
2022-10-18T00:49:32.543Z,34.30
2022-10-18T00:52:02.399Z,34.95
2022-10-18T00:54:31.014Z,40.75
2022-10-18T00:56:57.546Z,33.30
2022-10-18T00:59:24.386Z,33.08
2022-10-18T01:01:50.811Z,36.70
2022-10-18T01:04:19.138Z,35.17
2022-10-18T01:07:01.088Z,33.90
2022-10-18T01:09:50.964Z,36.40
2022-10-18T01:12:26.040Z,35.63
2022-10-18T01:15:14.219Z,33.80
2022-10-18T01:17:57.729Z,38.38
2022-10-18T01:20:51.390Z,37.60
2022-10-18T01:23:41.086Z,31.05
2022-10-18T01:26:26.247Z,34.70
2022-10-18T01:29:20.668Z,34.33
2022-10-18T01:31:53.466Z,33.03
2022-10-18T01:34:25.944Z,29.63
2022-10-18T01:36:54.512Z,34.80
2022-10-18T01:39:25.662Z,32.03
2022-10-18T01:41:54.611Z,33.08
2022-10-18T01:44:25.323Z,30.83
2022-10-18T01:46:55.606Z,28.92
2022-10-18T01:49:22.595Z,37.53
2022-10-18T01:51:48.928Z,37.92
2022-10-18T01:54:21.593Z,35.63
2022-10-18T01:57:02.463Z,35.13
2022-10-18T01:59:58.042Z,36.72
2022-10-18T02:02:44.238Z,33.17
2022-10-18T02:05:17.911Z,36.58
2022-10-18T02:08:00.107Z,31.80
2022-10-18T02:10:43.098Z,36.28
2022-10-18T02:13:13.018Z,34.28
2022-10-18T02:15:43.284Z,36.78
2022-10-18T02:18:25.420Z,33.95
2022-10-18T02:20:53.067Z,36.47
2022-10-18T02:23:23.183Z,38.13
2022-10-18T02:25:50.850Z,37.03
2022-10-18T02:28:17.502Z,35.25
2022-10-18T02:31:04.609Z,33.58
2022-10-18T02:33:51.651Z,34.47
2022-10-18T02:36:27.238Z,37.10
2022-10-18T02:39:00.422Z,37.75
2022-10-18T02:41:27.890Z,36.92
2022-10-18T02:43:54.303Z,38.45
2022-10-18T02:46:21.029Z,41.33
2022-10-18T02:48:47.379Z,45.63
2022-10-18T02:51:14.160Z,38.60
2022-10-18T02:53:40.502Z,37.33
2022-10-18T02:56:07.035Z,48.00
2022-10-18T02:58:33.351Z,42.70
2022-10-18T03:00:59.681Z,39.08
2022-10-18T03:03:26.078Z,43.17
2022-10-18T03:05:52.782Z,44.78
2022-10-18T03:08:19.786Z,43.35
2022-10-18T03:10:46.887Z,46.78
2022-10-18T03:13:13.384Z,41.33
2022-10-18T03:15:40.076Z,48.40
2022-10-18T03:18:06.421Z,56.40
2022-10-18T03:20:34.996Z,73.88
2022-10-18T03:23:01.388Z,83.57
2022-10-18T03:25:27.752Z,51.95
2022-10-18T03:27:54.100Z,74.15
2022-10-18T03:30:20.458Z,52.53
2022-10-18T03:32:46.787Z,40.25
2022-10-18T03:35:13.125Z,42.22
2022-10-18T03:37:39.517Z,50.63
2022-10-18T03:40:07.801Z,41.55
2022-10-18T03:42:34.646Z,41.47
2022-10-18T03:45:01.255Z,36.63
2022-10-18T03:47:27.631Z,43.63
2022-10-18T03:49:57.007Z,49.85
2022-10-18T03:52:23.824Z,60.25
2022-10-18T03:54:50.187Z,39.83
2022-10-18T03:57:16.696Z,57.50
2022-10-18T03:59:43.464Z,36.25
2022-10-18T04:02:09.816Z,42.15
2022-10-18T04:04:36.186Z,31.95
2022-10-18T04:07:02.528Z,39.38
2022-10-18T04:09:28.896Z,31.98
2022-10-18T04:11:55.228Z,40.00
2022-10-18T04:14:22.001Z,38.83
2022-10-18T04:16:48.418Z,37.97
2022-10-18T04:19:14.830Z,34.35
2022-10-18T04:21:41.196Z,52.00
2022-10-18T04:24:07.572Z,61.17
2022-10-18T04:26:34.068Z,37.72
2022-10-18T04:29:00.557Z,45.08
2022-10-18T04:31:27.064Z,37.55
2022-10-18T04:33:53.603Z,32.83
2022-10-18T04:36:19.945Z,42.38
2022-10-18T04:38:46.284Z,46.17
2022-10-18T04:41:12.621Z,28.92
2022-10-18T04:43:39.012Z,46.38
2022-10-18T04:46:05.481Z,33.17
2022-10-18T04:48:31.831Z,43.30
2022-10-18T04:50:58.196Z,32.30
2022-10-18T04:53:24.536Z,33.08
2022-10-18T04:55:51.310Z,42.53
2022-10-18T04:58:18.578Z,34.30
2022-10-18T05:00:45.775Z,40.22
2022-10-18T05:03:13.947Z,34.58
2022-10-18T05:06:00.273Z,33.33
2022-10-18T05:08:27.082Z,34.08
2022-10-18T05:10:53.497Z,55.83
2022-10-18T05:13:19.950Z,33.15
2022-10-18T05:15:47.423Z,40.72
2022-10-18T05:18:13.864Z,37.90
2022-10-18T05:20:40.211Z,34.83
2022-10-18T05:23:06.656Z,26.42
2022-10-18T05:25:33.103Z,43.30
2022-10-18T05:28:03.434Z,36.17
2022-10-18T05:30:38.934Z,42.80
2022-10-18T05:33:05.894Z,31.13
2022-10-18T05:35:32.753Z,35.00
2022-10-18T05:37:59.206Z,36.88
2022-10-18T05:40:25.595Z,34.53
2022-10-18T05:42:52.574Z,35.38
2022-10-18T05:45:19.359Z,52.45
2022-10-18T05:47:45.866Z,66.03
2022-10-18T05:50:12.274Z,39.80
2022-10-18T05:52:38.643Z,69.70
2022-10-18T05:55:05.492Z,44.25
2022-10-18T05:57:32.649Z,53.72
2022-10-18T05:59:59.207Z,52.00
2022-10-18T06:02:25.650Z,41.65
2022-10-18T06:04:52.061Z,63.85
2022-10-18T06:07:18.404Z,61.97
2022-10-18T06:09:44.721Z,109.38
2022-10-18T06:12:11.107Z,27.80
2022-10-18T06:14:37.621Z,45.55
2022-10-18T06:17:04.262Z,48.35
2022-10-18T06:19:30.656Z,45.55
2022-10-18T06:21:57.041Z,75.97
2022-10-18T06:24:23.398Z,56.72
2022-10-18T06:26:49.970Z,63.78
2022-10-18T06:29:16.370Z,45.45
2022-10-18T06:31:42.706Z,86.80
2022-10-18T06:34:09.048Z,26.30
2022-10-18T06:36:35.421Z,29.65
2022-10-18T06:39:02.531Z,53.67
2022-10-18T06:41:28.886Z,47.17
2022-10-18T06:43:57.457Z,37.35
2022-10-18T06:46:25.602Z,36.10
2022-10-18T06:48:52.021Z,45.67
2022-10-18T06:51:18.457Z,38.78
2022-10-18T06:53:59.258Z,97.57
2022-10-18T06:56:31.450Z,52.72
2022-10-18T07:01:25.297Z,37.83
2022-10-18T07:03:53.742Z,44.97
2022-10-18T07:06:21.171Z,44.40
2022-10-18T07:08:49.252Z,45.95
2022-10-18T07:11:18.760Z,31.40
2022-10-18T07:13:45.536Z,31.08
2022-10-18T07:16:17.357Z,51.20
2022-10-18T07:18:48.378Z,31.90
2022-10-18T07:21:16.999Z,34.70
2022-10-18T07:23:46.142Z,43.97
2022-10-18T07:26:20.525Z,105.55
2022-10-18T07:28:50.221Z,34.30
2022-10-18T07:31:17.180Z,39.55
2022-10-18T07:33:43.657Z,23.92
2022-10-18T07:36:12.376Z,27.83
2022-10-18T07:38:39.111Z,53.30
2022-10-18T07:41:07.512Z,36.95
2022-10-18T07:43:34.963Z,33.63
2022-10-18T07:46:04.125Z,24.08
2022-10-18T07:48:30.959Z,36.40
2022-10-18T07:51:01.805Z,29.80
2022-10-18T07:53:29.264Z,48.38
2022-10-18T07:56:01.393Z,43.25
2022-10-18T07:58:31.435Z,41.35
2022-10-18T08:00:57.973Z,34.10
2022-10-18T08:03:24.361Z,44.53
2022-10-18T08:05:55.306Z,153.82
2022-10-18T08:08:23.764Z,216.43
2022-10-18T08:10:50.647Z,111.43
2022-10-18T08:13:17.127Z,87.05
2022-10-18T08:15:43.696Z,32.22
2022-10-18T08:18:10.576Z,37.28
2022-10-18T08:20:37.076Z,53.30
2022-10-18T08:23:04.520Z,69.25
2022-10-18T08:25:31.027Z,63.33
2022-10-18T08:27:57.680Z,38.13
2022-10-18T08:30:24.118Z,25.88
2022-10-18T08:32:50.491Z,95.65
2022-10-18T08:35:16.928Z,27.70
2022-10-18T08:37:45.258Z,48.78
2022-10-18T08:40:15.223Z,39.40
2022-10-18T08:43:04.787Z,74.35
2022-10-18T08:45:42.536Z,45.65
2022-10-18T08:48:21.848Z,36.05
2022-10-18T08:50:50.787Z,34.35
2022-10-18T08:53:24.006Z,32.28
2022-10-18T08:55:54.753Z,47.90
2022-10-18T08:58:23.824Z,45.88
2022-10-18T09:01:13.664Z,67.07
2022-10-18T09:04:07.792Z,44.75
2022-10-18T09:06:37.096Z,49.45
2022-10-18T09:09:36.218Z,92.20
2022-10-18T09:12:53.450Z,55.05
2022-10-18T09:15:48.949Z,52.65
2022-10-18T09:18:40.350Z,52.40
2022-10-18T09:21:20.202Z,34.42
2022-10-18T09:24:01.171Z,41.42
2022-10-18T09:26:27.711Z,54.13
2022-10-18T09:29:16.414Z,58.75
2022-10-18T09:31:42.764Z,75.47
2022-10-18T09:34:22.926Z,36.17
2022-10-18T09:36:51.919Z,65.85
2022-10-18T09:39:30.166Z,63.97
2022-10-18T09:42:03.661Z,45.25
2022-10-18T09:44:39.645Z,48.58
2022-10-18T09:47:16.882Z,40.15
2022-10-18T09:49:51.359Z,37.97
2022-10-18T09:52:28.236Z,38.28
2022-10-18T09:55:00.006Z,37.22
2022-10-18T09:57:41.064Z,33.50
2022-10-18T10:00:16.185Z,29.83
2022-10-18T10:02:42.625Z,29.70
2022-10-18T10:05:14.166Z,31.10
2022-10-18T10:07:47.369Z,27.48
2022-10-18T10:10:20.039Z,24.35
2022-10-18T10:12:47.115Z,25.63
2022-10-18T10:15:21.063Z,23.00
2022-10-18T10:18:03.245Z,21.10
2022-10-18T10:20:42.258Z,18.88
2022-10-18T10:23:30.612Z,17.88
2022-10-18T10:26:01.111Z,20.23
2022-10-18T10:28:35.156Z,19.40
2022-10-18T10:31:28.745Z,18.98
2022-10-18T10:34:01.775Z,21.00
2022-10-18T10:36:29.495Z,21.35
2022-10-18T10:39:13.478Z,20.65
2022-10-18T10:41:41.338Z,22.48
2022-10-18T10:44:16.732Z,18.55
2022-10-18T10:46:43.237Z,14.75
2022-10-18T10:49:40.163Z,15.40
2022-10-18T10:52:09.255Z,18.40
2022-10-18T10:54:52.124Z,16.33
2022-10-18T10:57:23.877Z,17.60
2022-10-18T10:59:53.531Z,16.15
2022-10-18T11:02:31.196Z,17.33
2022-10-18T11:05:25.051Z,16.77
2022-10-18T11:07:55.425Z,15.30
2022-10-18T11:10:30.680Z,13.38
2022-10-18T11:13:17.725Z,14.60
2022-10-18T11:15:52.338Z,14.77
2022-10-18T11:18:25.332Z,17.50
2022-10-18T11:21:07.831Z,17.52
2022-10-18T11:23:37.134Z,13.60
2022-10-18T11:26:12.621Z,15.98
2022-10-18T11:28:39.046Z,14.70
2022-10-18T11:31:17.534Z,14.65
2022-10-18T11:34:11.592Z,17.10
2022-10-18T11:37:27.240Z,17.42
2022-10-18T11:43:00.751Z,14.52
2022-10-18T11:45:36.175Z,14.48
2022-10-18T11:48:16.426Z,15.80
2022-10-18T11:50:54.965Z,15.27
2022-10-18T11:53:29.442Z,14.35
2022-10-18T11:56:19.566Z,13.73
2022-10-18T11:58:54.746Z,15.95
2022-10-18T12:01:32.512Z,17.35
2022-10-18T12:04:09.363Z,13.80
2022-10-18T12:06:41.489Z,15.90
2022-10-18T12:09:28.520Z,17.17
2022-10-18T12:12:20.430Z,19.08
2022-10-18T12:14:54.785Z,18.75
2022-10-18T12:17:43.138Z,15.88
2022-10-18T12:20:16.970Z,19.63
2022-10-18T12:22:49.917Z,18.48
2022-10-18T12:25:18.054Z,22.10
2022-10-18T12:27:53.063Z,20.17
2022-10-18T12:30:46.928Z,18.85
2022-10-18T12:33:27.684Z,23.55
2022-10-18T12:36:00.994Z,18.60
2022-10-18T12:38:31.637Z,18.67
2022-10-18T12:40:59.198Z,19.00
2022-10-18T12:43:33.970Z,18.73
2022-10-18T12:46:03.837Z,19.98
2022-10-18T12:48:36.383Z,22.63
2022-10-18T12:51:16.659Z,20.67
2022-10-18T12:53:50.412Z,18.58
2022-10-18T12:56:43.222Z,19.85
2022-10-18T12:59:15.718Z,20.45
2022-10-18T13:02:05.256Z,23.00
2022-10-18T13:04:32.425Z,20.70
2022-10-18T13:07:02.953Z,19.27
2022-10-18T13:09:37.270Z,17.95
2022-10-18T13:12:09.711Z,15.77
2022-10-18T13:15:12.399Z,19.63
2022-10-18T13:17:59.903Z,18.52
2022-10-18T13:20:31.886Z,17.85
2022-10-18T13:23:07.393Z,19.73
2022-10-18T13:25:54.129Z,19.45
2022-10-18T13:28:24.483Z,19.20
2022-10-18T13:31:22.800Z,20.65
2022-10-18T13:33:49.458Z,18.33
2022-10-18T13:36:22.814Z,21.00
2022-10-18T13:38:57.553Z,21.63
2022-10-18T13:41:35.442Z,17.25
2022-10-18T13:44:02.079Z,19.98
2022-10-18T13:46:34.122Z,16.88
2022-10-18T13:49:14.887Z,21.40
2022-10-18T13:52:03.434Z,21.80
2022-10-18T13:54:55.915Z,16.80
2022-10-18T13:57:55.210Z,20.05
2022-10-18T14:03:56.224Z,19.38
2022-10-18T14:06:25.949Z,18.13
2022-10-18T14:08:57.934Z,18.35
2022-10-18T14:11:34.088Z,21.50
2022-10-18T14:14:13.378Z,17.40
2022-10-18T14:16:46.906Z,16.92
2022-10-18T14:19:30.192Z,16.52
2022-10-18T14:22:11.552Z,17.33
2022-10-18T14:24:43.479Z,17.13
2022-10-18T14:27:18.301Z,16.30
2022-10-18T14:29:45.903Z,17.30
2022-10-18T14:32:28.173Z,18.40
2022-10-18T14:35:27.358Z,19.50
2022-10-18T14:37:47.505Z,19.85
2022-10-18T14:40:39.219Z,20.23
2022-10-18T14:43:12.722Z,19.45
2022-10-18T14:45:42.939Z,17.30
2022-10-18T14:48:24.401Z,13.68
2022-10-18T14:50:59.360Z,10.85
2022-10-18T14:53:34.462Z,6.90
2022-10-18T14:56:05.742Z,5.82
2022-10-18T14:58:34.704Z,4.78
2022-10-18T15:01:01.186Z,5.68
2022-10-18T15:03:28.378Z,3.60
2022-10-18T15:06:00.391Z,7.43
2022-10-18T15:08:32.630Z,3.95
2022-10-18T15:10:59.243Z,5.25
2022-10-18T15:13:27.507Z,5.78
2022-10-18T15:15:55.727Z,4.43
2022-10-18T15:18:25.504Z,6.45
2022-10-18T15:21:21.513Z,3.92
2022-10-18T15:23:51.233Z,4.82
2022-10-18T15:26:33.001Z,6.88
2022-10-18T15:29:01.590Z,4.28
2022-10-18T15:31:34.857Z,5.20
2022-10-18T15:34:23.425Z,5.47
2022-10-18T15:36:51.556Z,4.95
2022-10-18T15:39:21.882Z,5.88
2022-10-18T15:41:51.442Z,4.05
2022-10-18T15:44:21.517Z,5.18
2022-10-18T15:46:49.291Z,5.65
2022-10-18T15:49:24.634Z,6.18
2022-10-18T15:52:32.565Z,6.97
2022-10-18T15:57:31.408Z,4.40
2022-10-18T16:00:02.083Z,4.93
2022-10-18T16:02:29.028Z,5.30
2022-10-18T16:04:55.737Z,7.25
2022-10-18T16:07:22.251Z,6.95
2022-10-18T16:09:48.574Z,4.65
2022-10-18T16:12:14.953Z,4.63
2022-10-18T16:14:41.291Z,4.50
2022-10-18T16:17:07.855Z,8.90
2022-10-18T16:19:34.246Z,7.20
2022-10-18T16:22:06.069Z,4.45
2022-10-18T16:24:33.271Z,4.60
2022-10-18T16:26:59.643Z,6.32
2022-10-18T16:29:28.397Z,4.75
2022-10-18T16:31:57.971Z,5.15
2022-10-18T16:34:26.944Z,5.80
2022-10-18T16:36:53.790Z,5.38
2022-10-18T16:39:21.568Z,5.93
2022-10-18T16:41:48.622Z,6.35
2022-10-18T16:44:16.656Z,7.35
2022-10-18T16:46:43.038Z,6.97
2022-10-18T16:49:22.626Z,5.80
2022-10-18T16:51:50.019Z,7.38
2022-10-18T16:54:16.528Z,6.32
2022-10-18T16:56:42.872Z,4.90
2022-10-18T16:59:20.459Z,5.18
2022-10-18T17:01:46.867Z,5.38
2022-10-18T17:04:13.403Z,6.45
2022-10-18T17:06:39.890Z,6.20
2022-10-18T17:09:06.249Z,5.18
2022-10-18T17:11:32.619Z,4.45
2022-10-18T17:13:58.954Z,7.78
2022-10-18T17:16:30.819Z,9.18
2022-10-18T17:18:59.215Z,5.43
2022-10-18T17:21:27.042Z,4.38
2022-10-18T17:23:53.507Z,5.43
2022-10-18T17:26:30.100Z,3.85
2022-10-18T17:29:03.995Z,5.18
2022-10-18T17:31:32.272Z,9.60
2022-10-18T17:34:01.368Z,6.20
2022-10-18T17:36:31.909Z,6.05
2022-10-18T17:38:58.494Z,5.35
2022-10-18T17:41:24.835Z,5.00
2022-10-18T17:43:51.299Z,6.15
2022-10-18T17:46:18.204Z,5.18
2022-10-18T17:48:45.326Z,4.68
2022-10-18T17:51:14.463Z,4.90
2022-10-18T17:53:41.013Z,6.25
2022-10-18T17:56:10.356Z,7.00
2022-10-18T17:58:36.811Z,5.60
2022-10-18T18:01:14.565Z,8.07
2022-10-18T18:03:41.347Z,6.93
2022-10-18T18:06:18.436Z,7.28
2022-10-18T18:08:45.406Z,6.78
2022-10-18T18:11:12.198Z,6.50
2022-10-18T18:13:38.857Z,8.85
2022-10-18T18:16:12.885Z,7.32
2022-10-18T18:18:39.423Z,6.65
2022-10-18T18:21:05.888Z,6.75
2022-10-18T18:23:32.339Z,11.35
2022-10-18T18:25:58.979Z,9.73
2022-10-18T18:28:25.413Z,7.78
2022-10-18T18:30:51.798Z,6.93
2022-10-18T18:33:18.152Z,8.15
2022-10-18T18:35:44.500Z,6.18
2022-10-18T18:38:10.856Z,7.43
2022-10-18T18:40:37.224Z,7.32
2022-10-18T18:43:12.391Z,8.75
2022-10-18T18:45:50.489Z,7.97
2022-10-18T18:48:19.145Z,10.20
2022-10-18T18:50:49.939Z,11.20
2022-10-18T18:53:16.739Z,10.45
2022-10-18T18:55:43.137Z,8.13
2022-10-18T18:58:11.055Z,6.68
2022-10-18T19:00:43.369Z,7.18
2022-10-18T19:03:11.347Z,7.75
2022-10-18T19:05:38.149Z,6.63
2022-10-18T19:08:05.613Z,7.15
2022-10-18T19:10:32.126Z,10.27
2022-10-18T19:12:58.575Z,8.95
2022-10-18T19:15:24.993Z,9.80
2022-10-18T19:17:51.313Z,13.27
2022-10-18T19:20:18.106Z,9.60
2022-10-18T19:22:45.424Z,8.30
2022-10-18T19:25:11.874Z,8.57
2022-10-18T19:27:38.475Z,10.32
2022-10-18T19:30:08.027Z,8.35
2022-10-18T19:32:34.669Z,6.72
2022-10-18T19:35:01.111Z,7.80
2022-10-18T19:37:27.544Z,8.07
2022-10-18T19:39:53.985Z,10.13
2022-10-18T19:42:26.115Z,25.00
2022-10-18T19:44:54.945Z,22.30
2022-10-18T19:47:21.399Z,10.85
2022-10-18T19:49:48.051Z,11.15
2022-10-18T19:52:14.561Z,10.95
2022-10-18T19:54:41.077Z,8.27
2022-10-18T19:57:07.776Z,6.72
2022-10-18T19:59:35.865Z,5.95
2022-10-18T20:02:04.566Z,8.73
2022-10-18T20:04:34.281Z,7.03
2022-10-18T20:07:02.527Z,8.88
2022-10-18T20:09:29.150Z,9.73
2022-10-18T20:11:55.500Z,6.38
2022-10-18T20:14:21.915Z,8.15
2022-10-18T20:16:48.248Z,8.10
2022-10-18T20:19:14.576Z,7.95
2022-10-18T20:21:40.983Z,11.25
2022-10-18T20:24:09.170Z,11.25
2022-10-18T20:26:35.868Z,8.38
2022-10-18T20:29:02.965Z,10.18
2022-10-18T20:31:35.565Z,10.20
2022-10-18T20:34:04.316Z,7.57
2022-10-18T20:36:31.876Z,10.18
2022-10-18T20:38:59.076Z,7.20
2022-10-18T20:41:37.992Z,10.80
2022-10-18T20:44:09.619Z,9.40
2022-10-18T20:46:37.728Z,9.77
2022-10-18T20:49:06.186Z,9.93
2022-10-18T20:51:33.677Z,10.40
2022-10-18T20:54:01.882Z,12.98
2022-10-18T20:56:28.400Z,29.30
2022-10-18T20:58:56.711Z,11.38
2022-10-18T21:01:34.305Z,10.15
2022-10-18T21:04:03.124Z,10.48
2022-10-18T21:06:31.585Z,13.43
2022-10-18T21:09:00.499Z,9.10
2022-10-18T21:11:28.392Z,10.82
2022-10-18T21:13:58.821Z,10.82
2022-10-18T21:16:26.074Z,13.30
2022-10-18T21:18:52.414Z,9.35
2022-10-18T21:21:22.766Z,10.80
2022-10-18T21:23:49.903Z,10.70
2022-10-18T21:26:19.202Z,10.00
2022-10-18T21:28:46.658Z,9.80
2022-10-18T21:31:17.139Z,12.32
2022-10-18T21:33:44.866Z,11.93
2022-10-18T21:36:12.178Z,11.48
2022-10-18T21:38:39.215Z,9.70
2022-10-18T21:41:10.655Z,11.07
2022-10-18T21:43:41.157Z,9.98
2022-10-18T21:46:08.038Z,14.45
2022-10-18T21:48:34.392Z,11.98
2022-10-18T21:51:04.916Z,9.55
2022-10-18T21:53:31.423Z,9.00
2022-10-18T21:56:08.428Z,9.68
2022-10-18T21:58:36.339Z,8.88
2022-10-18T22:01:12.321Z,9.40
2022-10-18T22:03:38.875Z,9.60
2022-10-18T22:06:08.952Z,10.25
2022-10-18T22:08:36.083Z,10.65
2022-10-18T22:11:04.676Z,10.98
2022-10-18T22:13:31.247Z,12.25
2022-10-18T22:16:02.302Z,10.43
2022-10-18T22:18:29.550Z,10.40
2022-10-18T22:21:07.046Z,9.18
2022-10-18T22:23:35.255Z,10.75
2022-10-18T22:26:09.855Z,8.48
2022-10-18T22:28:36.966Z,7.07
2022-10-18T22:31:04.256Z,9.45
2022-10-18T22:33:30.753Z,9.68
2022-10-18T22:35:57.215Z,8.05
2022-10-18T22:38:23.880Z,8.15
2022-10-18T22:40:50.279Z,11.05
2022-10-18T22:43:16.676Z,7.90
2022-10-18T22:45:43.072Z,8.50
2022-10-18T22:48:09.493Z,6.70
2022-10-18T22:50:35.833Z,9.10
2022-10-18T22:53:02.166Z,7.82
2022-10-18T22:55:28.511Z,8.00
2022-10-18T22:57:55.822Z,9.25
2022-10-18T23:00:22.266Z,7.38
2022-10-18T23:02:49.719Z,7.68
2022-10-18T23:05:16.289Z,7.95
2022-10-18T23:07:47.547Z,6.00
2022-10-18T23:10:14.013Z,8.18
2022-10-18T23:12:40.384Z,7.40
2022-10-18T23:15:07.520Z,6.47
2022-10-18T23:17:34.041Z,6.40
2022-10-18T23:20:00.475Z,5.78
2022-10-18T23:22:26.862Z,6.45
2022-10-18T23:24:53.235Z,6.60
2022-10-18T23:27:19.612Z,8.32
2022-10-18T23:29:45.926Z,6.55
2022-10-18T23:32:12.257Z,7.85
2022-10-18T23:34:38.586Z,6.20
2022-10-18T23:37:05.066Z,5.78
2022-10-18T23:39:31.422Z,6.03
2022-10-18T23:41:57.795Z,7.15
2022-10-18T23:44:24.176Z,6.03
2022-10-18T23:46:50.488Z,7.10
2022-10-18T23:49:16.818Z,6.55
2022-10-18T23:51:43.228Z,5.03
2022-10-18T23:54:09.555Z,6.75
2022-10-18T23:56:35.900Z,5.75
2022-10-18T23:59:02.435Z,5.45
